Hammond, Louisiana
Current Conditions -  °F | °C
As of 1:15 PM on Thursday 30 Oct 2014 (Local Time) from KHDC Reporting Station
Clear Clear  
Wind Chill: 75°   Ceiling: Unl
Heat Index: 75°   Visibility: 10mi
Dew Point: 36°   Wind: 9mph
Humidity: 24%   Direction: 360°N
Pressure: 30.1"   Gusts: NA
Location:  30.5°N, 90.46°W
Report Text: KHDC 301815Z AUTO 36008KT 10SM CLR 24/02 A3010 RMK AO2
Loading
Personal Weather Stations






























Interactive Weather Map New forecast layout! Learn more

10-Day Weather Forecast

Advertisements
Track Severe Weather on mobile